sensor_id;sensor_type;location;lat;lon;timestamp;P1;durP1;ratioP1;P2;durP2;ratioP2
50880;SDS011;36858;47.832;-3.800;2023-06-01T05:47:05;12.90;;;7.73;;
50880;SDS011;36858;47.832;-3.800;2023-06-01T05:49:33;11.17;;;7.67;;
50880;SDS011;36858;47.832;-3.800;2023-06-01T05:52:01;11.97;;;8.03;;
50880;SDS011;36858;47.832;-3.800;2023-06-01T05:54:30;11.97;;;7.40;;
50880;SDS011;36858;47.832;-3.800;2023-06-01T05:56:57;17.03;;;7.70;;
50880;SDS011;36858;47.832;-3.800;2023-06-01T05:59:24;17.47;;;7.70;;
50880;SDS011;36858;47.832;-3.800;2023-06-01T06:01:51;10.87;;;7.07;;
50880;SDS011;36858;47.832;-3.800;2023-06-01T06:04:18;12.10;;;7.30;;
50880;SDS011;36858;47.832;-3.800;2023-06-01T06:06:45;10.10;;;7.43;;
50880;SDS011;36858;47.832;-3.800;2023-06-01T06:09:12;12.87;;;7.47;;
50880;SDS011;36858;47.832;-3.800;2023-06-01T06:11:40;10.80;;;7.37;;
50880;SDS011;36858;47.832;-3.800;2023-06-01T06:14:07;9.57;;;6.53;;
50880;SDS011;36858;47.832;-3.800;2023-06-01T06:16:34;12.07;;;7.27;;
50880;SDS011;36858;47.832;-3.800;2023-06-01T06:19:01;11.43;;;6.57;;
50880;SDS011;36858;47.832;-3.800;2023-06-01T06:21:28;12.10;;;7.50;;
50880;SDS011;36858;47.832;-3.800;2023-06-01T06:23:55;11.97;;;6.90;;
50880;SDS011;36858;47.832;-3.800;2023-06-01T06:26:25;14.67;;;6.87;;
50880;SDS011;36858;47.832;-3.800;2023-06-01T06:28:53;9.37;;;6.37;;
50880;SDS011;36858;47.832;-3.800;2023-06-01T06:31:20;13.23;;;6.60;;
50880;SDS011;36858;47.832;-3.800;2023-06-01T06:33:47;11.70;;;6.93;;
50880;SDS011;36858;47.832;-3.800;2023-06-01T06:36:15;8.97;;;6.53;;
50880;SDS011;36858;47.832;-3.800;2023-06-01T06:38:42;9.80;;;6.40;;
50880;SDS011;36858;47.832;-3.800;2023-06-01T06:41:10;10.60;;;7.10;;
50880;SDS011;36858;47.832;-3.800;2023-06-01T06:43:37;11.33;;;6.20;;
50880;SDS011;36858;47.832;-3.800;2023-06-01T06:46:04;10.27;;;6.43;;
50880;SDS011;36858;47.832;-3.800;2023-06-01T06:48:31;10.07;;;6.63;;
50880;SDS011;36858;47.832;-3.800;2023-06-01T06:50:58;9.67;;;7.23;;
50880;SDS011;36858;47.832;-3.800;2023-06-01T06:53:25;12.50;;;7.33;;
50880;SDS011;36858;47.832;-3.800;2023-06-01T06:55:52;11.87;;;6.80;;
50880;SDS011;36858;47.832;-3.800;2023-06-01T06:58:19;9.53;;;6.40;;
50880;SDS011;36858;47.832;-3.800;2023-06-01T07:00:46;7.50;;;5.97;;
50880;SDS011;36858;47.832;-3.800;2023-06-01T07:03:13;10.73;;;6.40;;
50880;SDS011;36858;47.832;-3.800;2023-06-01T07:05:40;8.40;;;5.83;;
50880;SDS011;36858;47.832;-3.800;2023-06-01T07:08:07;8.27;;;6.60;;
50880;SDS011;36858;47.832;-3.800;2023-06-01T07:10:34;11.90;;;6.10;;
50880;SDS011;36858;47.832;-3.800;2023-06-01T07:13:01;8.70;;;5.60;;
50880;SDS011;36858;47.832;-3.800;2023-06-01T07:15:28;13.80;;;6.50;;
50880;SDS011;36858;47.832;-3.800;2023-06-01T07:17:55;11.27;;;5.87;;
50880;SDS011;36858;47.832;-3.800;2023-06-01T07:20:22;11.37;;;5.90;;
50880;SDS011;36858;47.832;-3.800;2023-06-01T07:22:52;10.67;;;6.13;;
50880;SDS011;36858;47.832;-3.800;2023-06-01T07:25:19;7.93;;;5.37;;
50880;SDS011;36858;47.832;-3.800;2023-06-01T07:27:46;8.57;;;6.23;;
50880;SDS011;36858;47.832;-3.800;2023-06-01T07:30:14;8.27;;;5.80;;
50880;SDS011;36858;47.832;-3.800;2023-06-01T07:32:42;8.90;;;5.80;;
50880;SDS011;36858;47.832;-3.800;2023-06-01T07:35:09;9.87;;;5.67;;
50880;SDS011;36858;47.832;-3.800;2023-06-01T07:37:37;10.53;;;6.27;;
50880;SDS011;36858;47.832;-3.800;2023-06-01T07:40:04;11.40;;;6.03;;
50880;SDS011;36858;47.832;-3.800;2023-06-01T07:42:34;7.60;;;5.60;;
50880;SDS011;36858;47.832;-3.800;2023-06-01T07:45:01;10.80;;;5.63;;
50880;SDS011;36858;47.832;-3.800;2023-06-01T07:47:28;9.77;;;5.67;;
50880;SDS011;36858;47.832;-3.800;2023-06-01T07:49:56;10.10;;;5.10;;
50880;SDS011;36858;47.832;-3.800;2023-06-01T07:52:23;6.97;;;5.53;;
50880;SDS011;36858;47.832;-3.800;2023-06-01T07:54:51;8.50;;;5.67;;
50880;SDS011;36858;47.832;-3.800;2023-06-01T07:57:18;14.13;;;6.53;;
50880;SDS011;36858;47.832;-3.800;2023-06-01T07:59:45;10.80;;;6.57;;
50880;SDS011;36858;47.832;-3.800;2023-06-01T08:02:12;8.07;;;5.63;;
50880;SDS011;36858;47.832;-3.800;2023-06-01T08:04:40;9.63;;;5.47;;
50880;SDS011;36858;47.832;-3.800;2023-06-01T08:07:08;11.07;;;5.90;;
50880;SDS011;36858;47.832;-3.800;2023-06-01T08:09:35;10.37;;;6.17;;
50880;SDS011;36858;47.832;-3.800;2023-06-01T08:12:04;9.97;;;5.80;;
50880;SDS011;36858;47.832;-3.800;2023-06-01T08:14:33;11.33;;;6.30;;
50880;SDS011;36858;47.832;-3.800;2023-06-01T08:17:01;9.50;;;5.80;;
50880;SDS011;36858;47.832;-3.800;2023-06-01T08:19:28;11.03;;;5.70;;
50880;SDS011;36858;47.832;-3.800;2023-06-01T08:21:55;8.33;;;5.93;;
50880;SDS011;36858;47.832;-3.800;2023-06-01T08:24:22;11.03;;;6.03;;
50880;SDS011;36858;47.832;-3.800;2023-06-01T08:26:55;8.10;;;5.40;;
50880;SDS011;36858;47.832;-3.800;2023-06-01T08:29:25;9.93;;;5.63;;
50880;SDS011;36858;47.832;-3.800;2023-06-01T08:32:08;8.97;;;5.43;;
50880;SDS011;36858;47.832;-3.800;2023-06-01T08:34:36;9.07;;;5.83;;
50880;SDS011;36858;47.832;-3.800;2023-06-01T08:37:03;10.57;;;5.60;;
50880;SDS011;36858;47.832;-3.800;2023-06-01T08:39:30;9.67;;;5.33;;
50880;SDS011;36858;47.832;-3.800;2023-06-01T08:44:37;9.33;;;5.23;;
50880;SDS011;36858;47.832;-3.800;2023-06-01T08:47:05;9.10;;;5.33;;
50880;SDS011;36858;47.832;-3.800;2023-06-01T08:49:34;7.67;;;5.37;;
50880;SDS011;36858;47.832;-3.800;2023-06-01T08:52:04;7.63;;;4.73;;
50880;SDS011;36858;47.832;-3.800;2023-06-01T08:54:35;9.50;;;4.83;;
50880;SDS011;36858;47.832;-3.800;2023-06-01T08:57:03;12.47;;;5.23;;
50880;SDS011;36858;47.832;-3.800;2023-06-01T08:59:31;9.23;;;5.13;;
50880;SDS011;36858;47.832;-3.800;2023-06-01T09:01:58;7.13;;;4.73;;
50880;SDS011;36858;47.832;-3.800;2023-06-01T09:04:26;11.10;;;5.80;;
50880;SDS011;36858;47.832;-3.800;2023-06-01T09:06:53;12.10;;;5.03;;
50880;SDS011;36858;47.832;-3.800;2023-06-01T09:09:20;9.47;;;4.67;;
50880;SDS011;36858;47.832;-3.800;2023-06-01T09:11:47;10.10;;;4.90;;
50880;SDS011;36858;47.832;-3.800;2023-06-01T09:14:23;12.40;;;5.50;;
50880;SDS011;36858;47.832;-3.800;2023-06-01T09:16:51;10.50;;;5.53;;
50880;SDS011;36858;47.832;-3.800;2023-06-01T09:19:18;8.80;;;5.10;;
50880;SDS011;36858;47.832;-3.800;2023-06-01T09:21:57;10.63;;;5.13;;
50880;SDS011;36858;47.832;-3.800;2023-06-01T09:24:26;14.07;;;5.67;;
50880;SDS011;36858;47.832;-3.800;2023-06-01T09:26:57;7.10;;;5.00;;
50880;SDS011;36858;47.832;-3.800;2023-06-01T09:29:29;10.70;;;4.63;;
50880;SDS011;36858;47.832;-3.800;2023-06-01T09:31:57;7.77;;;4.70;;
50880;SDS011;36858;47.832;-3.800;2023-06-01T09:34:24;8.07;;;4.63;;
50880;SDS011;36858;47.832;-3.800;2023-06-01T09:36:54;10.20;;;4.83;;
50880;SDS011;36858;47.832;-3.800;2023-06-01T09:39:22;9.07;;;5.50;;
50880;SDS011;36858;47.832;-3.800;2023-06-01T09:44:27;12.47;;;5.47;;
50880;SDS011;36858;47.832;-3.800;2023-06-01T09:46:55;8.40;;;4.97;;
50880;SDS011;36858;47.832;-3.800;2023-06-01T09:49:25;13.07;;;4.90;;
50880;SDS011;36858;47.832;-3.800;2023-06-01T09:52:07;16.23;;;5.73;;
50880;SDS011;36858;47.832;-3.800;2023-06-01T09:54:48;12.47;;;4.83;;
50880;SDS011;36858;47.832;-3.800;2023-06-01T09:57:24;11.17;;;4.57;;
50880;SDS011;36858;47.832;-3.800;2023-06-01T09:59:52;8.13;;;4.70;;
50880;SDS011;36858;47.832;-3.800;2023-06-01T10:02:19;8.03;;;4.43;;
50880;SDS011;36858;47.832;-3.800;2023-06-01T10:04:48;6.23;;;4.43;;
50880;SDS011;36858;47.832;-3.800;2023-06-01T10:07:17;11.13;;;4.57;;
50880;SDS011;36858;47.832;-3.800;2023-06-01T10:09:45;7.90;;;4.50;;
50880;SDS011;36858;47.832;-3.800;2023-06-01T10:12:18;9.73;;;4.57;;
50880;SDS011;36858;47.832;-3.800;2023-06-01T10:14:45;11.30;;;4.70;;
50880;SDS011;36858;47.832;-3.800;2023-06-01T10:17:12;11.70;;;4.77;;
50880;SDS011;36858;47.832;-3.800;2023-06-01T10:19:41;9.13;;;4.80;;
50880;SDS011;36858;47.832;-3.800;2023-06-01T10:22:08;8.63;;;4.80;;
50880;SDS011;36858;47.832;-3.800;2023-06-01T10:24:37;59.33;;;12.33;;
50880;SDS011;36858;47.832;-3.800;2023-06-01T10:29:58;11.60;;;5.77;;
50880;SDS011;36858;47.832;-3.800;2023-06-01T10:32:41;12.23;;;4.73;;
50880;SDS011;36858;47.832;-3.800;2023-06-01T10:40:33;9.70;;;5.20;;
50880;SDS011;36858;47.832;-3.800;2023-06-01T10:43:01;7.80;;;4.47;;
50880;SDS011;36858;47.832;-3.800;2023-06-01T10:48:06;7.33;;;4.63;;
50880;SDS011;36858;47.832;-3.800;2023-06-01T10:50:34;6.87;;;4.80;;
50880;SDS011;36858;47.832;-3.800;2023-06-01T11:01:44;6.13;;;4.60;;
50880;SDS011;36858;47.832;-3.800;2023-06-01T11:04:11;8.63;;;4.33;;
50880;SDS011;36858;47.832;-3.800;2023-06-01T11:06:40;5.37;;;4.00;;
50880;SDS011;36858;47.832;-3.800;2023-06-01T11:09:10;10.47;;;4.63;;
50880;SDS011;36858;47.832;-3.800;2023-06-01T11:14:14;8.23;;;4.20;;
50880;SDS011;36858;47.832;-3.800;2023-06-01T11:16:42;8.00;;;4.23;;
50880;SDS011;36858;47.832;-3.800;2023-06-01T11:19:09;8.33;;;4.30;;
50880;SDS011;36858;47.832;-3.800;2023-06-01T11:21:41;10.90;;;4.43;;
50880;SDS011;36858;47.832;-3.800;2023-06-01T11:24:13;9.47;;;5.17;;
50880;SDS011;36858;47.832;-3.800;2023-06-01T11:26:44;10.67;;;4.63;;
50880;SDS011;36858;47.832;-3.800;2023-06-01T11:29:17;7.93;;;3.97;;
50880;SDS011;36858;47.832;-3.800;2023-06-01T11:31:46;8.17;;;4.33;;
50880;SDS011;36858;47.832;-3.800;2023-06-01T11:34:18;8.83;;;4.47;;
50880;SDS011;36858;47.832;-3.800;2023-06-01T11:36:47;9.47;;;4.60;;
50880;SDS011;36858;47.832;-3.800;2023-06-01T11:39:19;6.63;;;4.00;;
50880;SDS011;36858;47.832;-3.800;2023-06-01T11:41:48;8.17;;;4.00;;
50880;SDS011;36858;47.832;-3.800;2023-06-01T11:44:16;5.93;;;3.40;;
50880;SDS011;36858;47.832;-3.800;2023-06-01T11:46:49;11.90;;;5.20;;
50880;SDS011;36858;47.832;-3.800;2023-06-01T11:49:20;9.73;;;4.00;;
50880;SDS011;36858;47.832;-3.800;2023-06-01T11:51:47;8.20;;;4.47;;
50880;SDS011;36858;47.832;-3.800;2023-06-01T11:54:15;10.37;;;4.63;;
50880;SDS011;36858;47.832;-3.800;2023-06-01T11:56:42;6.97;;;4.10;;
50880;SDS011;36858;47.832;-3.800;2023-06-01T11:59:09;10.07;;;4.00;;
50880;SDS011;36858;47.832;-3.800;2023-06-01T12:01:41;6.13;;;3.50;;
50880;SDS011;36858;47.832;-3.800;2023-06-01T12:04:16;7.53;;;3.57;;
50880;SDS011;36858;47.832;-3.800;2023-06-01T12:06:44;5.13;;;3.60;;
50880;SDS011;36858;47.832;-3.800;2023-06-01T12:09:12;5.67;;;3.93;;
50880;SDS011;36858;47.832;-3.800;2023-06-01T12:11:39;6.87;;;4.00;;
50880;SDS011;36858;47.832;-3.800;2023-06-01T12:14:10;8.20;;;4.10;;
50880;SDS011;36858;47.832;-3.800;2023-06-01T12:19:20;7.87;;;3.90;;
50880;SDS011;36858;47.832;-3.800;2023-06-01T12:21:48;10.87;;;4.10;;
50880;SDS011;36858;47.832;-3.800;2023-06-01T12:24:33;6.90;;;3.77;;
50880;SDS011;36858;47.832;-3.800;2023-06-01T12:27:00;5.60;;;4.13;;
50880;SDS011;36858;47.832;-3.800;2023-06-01T12:29:41;10.07;;;3.67;;
50880;SDS011;36858;47.832;-3.800;2023-06-01T12:32:13;6.23;;;3.60;;
50880;SDS011;36858;47.832;-3.800;2023-06-01T12:34:42;10.30;;;3.73;;
50880;SDS011;36858;47.832;-3.800;2023-06-01T12:37:18;10.77;;;3.60;;
50880;SDS011;36858;47.832;-3.800;2023-06-01T12:39:52;7.30;;;3.80;;
50880;SDS011;36858;47.832;-3.800;2023-06-01T12:42:33;10.47;;;3.93;;
50880;SDS011;36858;47.832;-3.800;2023-06-01T12:45:02;12.70;;;4.07;;
50880;SDS011;36858;47.832;-3.800;2023-06-01T12:47:39;8.03;;;3.70;;
50880;SDS011;36858;47.832;-3.800;2023-06-01T12:50:08;11.90;;;4.70;;
50880;SDS011;36858;47.832;-3.800;2023-06-01T12:52:36;5.70;;;3.87;;
50880;SDS011;36858;47.832;-3.800;2023-06-01T12:55:05;8.00;;;3.47;;
50880;SDS011;36858;47.832;-3.800;2023-06-01T12:57:32;9.77;;;4.40;;
50880;SDS011;36858;47.832;-3.800;2023-06-01T13:00:00;12.10;;;3.97;;
50880;SDS011;36858;47.832;-3.800;2023-06-01T13:02:27;7.73;;;4.00;;
50880;SDS011;36858;47.832;-3.800;2023-06-01T13:04:54;7.10;;;3.97;;
50880;SDS011;36858;47.832;-3.800;2023-06-01T13:07:21;9.47;;;3.83;;
50880;SDS011;36858;47.832;-3.800;2023-06-01T13:09:50;10.67;;;3.87;;
50880;SDS011;36858;47.832;-3.800;2023-06-01T13:12:17;5.40;;;3.60;;
50880;SDS011;36858;47.832;-3.800;2023-06-01T13:14:44;6.60;;;4.00;;
50880;SDS011;36858;47.832;-3.800;2023-06-01T13:17:11;4.33;;;3.37;;
50880;SDS011;36858;47.832;-3.800;2023-06-01T13:19:39;9.10;;;3.87;;
50880;SDS011;36858;47.832;-3.800;2023-06-01T13:22:09;8.23;;;3.80;;
50880;SDS011;36858;47.832;-3.800;2023-06-01T13:24:36;8.07;;;4.10;;
50880;SDS011;36858;47.832;-3.800;2023-06-01T13:27:06;7.10;;;3.77;;
50880;SDS011;36858;47.832;-3.800;2023-06-01T13:29:33;5.70;;;3.40;;
50880;SDS011;36858;47.832;-3.800;2023-06-01T13:32:00;7.07;;;3.20;;
50880;SDS011;36858;47.832;-3.800;2023-06-01T13:34:27;6.10;;;3.17;;
50880;SDS011;36858;47.832;-3.800;2023-06-01T13:36:54;6.30;;;3.57;;
50880;SDS011;36858;47.832;-3.800;2023-06-01T13:39:23;7.57;;;3.13;;
50880;SDS011;36858;47.832;-3.800;2023-06-01T13:41:51;6.50;;;3.20;;
50880;SDS011;36858;47.832;-3.800;2023-06-01T13:44:18;8.43;;;3.57;;
50880;SDS011;36858;47.832;-3.800;2023-06-01T13:46:45;6.33;;;3.50;;
50880;SDS011;36858;47.832;-3.800;2023-06-01T13:49:12;6.17;;;3.87;;
50880;SDS011;36858;47.832;-3.800;2023-06-01T13:51:40;5.83;;;3.67;;
50880;SDS011;36858;47.832;-3.800;2023-06-01T13:54:07;7.50;;;3.83;;
50880;SDS011;36858;47.832;-3.800;2023-06-01T13:56:34;8.33;;;3.67;;
50880;SDS011;36858;47.832;-3.800;2023-06-01T13:59:00;5.70;;;3.33;;
50880;SDS011;36858;47.832;-3.800;2023-06-01T14:01:28;10.23;;;3.67;;
50880;SDS011;36858;47.832;-3.800;2023-06-01T14:03:55;11.60;;;4.17;;
50880;SDS011;36858;47.832;-3.800;2023-06-01T14:06:22;5.33;;;3.20;;
50880;SDS011;36858;47.832;-3.800;2023-06-01T14:08:49;7.70;;;3.53;;
50880;SDS011;36858;47.832;-3.800;2023-06-01T14:11:16;6.47;;;3.60;;
50880;SDS011;36858;47.832;-3.800;2023-06-01T14:13:43;7.67;;;3.47;;
50880;SDS011;36858;47.832;-3.800;2023-06-01T14:16:10;8.80;;;3.63;;
50880;SDS011;36858;47.832;-3.800;2023-06-01T14:18:37;5.37;;;3.63;;
50880;SDS011;36858;47.832;-3.800;2023-06-01T14:21:04;6.33;;;3.50;;
50880;SDS011;36858;47.832;-3.800;2023-06-01T14:23:31;7.37;;;3.77;;
50880;SDS011;36858;47.832;-3.800;2023-06-01T14:25:58;9.43;;;3.80;;
50880;SDS011;36858;47.832;-3.800;2023-06-01T14:28:26;8.87;;;3.87;;
50880;SDS011;36858;47.832;-3.800;2023-06-01T14:30:53;8.53;;;3.50;;
50880;SDS011;36858;47.832;-3.800;2023-06-01T14:33:20;8.53;;;3.70;;
50880;SDS011;36858;47.832;-3.800;2023-06-01T14:35:47;7.33;;;4.10;;
50880;SDS011;36858;47.832;-3.800;2023-06-01T14:38:14;9.17;;;4.30;;
50880;SDS011;36858;47.832;-3.800;2023-06-01T14:40:42;4.90;;;3.47;;
50880;SDS011;36858;47.832;-3.800;2023-06-01T14:43:08;8.53;;;4.23;;
50880;SDS011;36858;47.832;-3.800;2023-06-01T14:45:35;11.53;;;4.27;;
50880;SDS011;36858;47.832;-3.800;2023-06-01T14:48:02;11.90;;;4.53;;
50880;SDS011;36858;47.832;-3.800;2023-06-01T14:50:29;13.63;;;4.43;;
50880;SDS011;36858;47.832;-3.800;2023-06-01T14:52:56;9.00;;;4.47;;
50880;SDS011;36858;47.832;-3.800;2023-06-01T14:55:26;5.73;;;4.37;;
50880;SDS011;36858;47.832;-3.800;2023-06-01T14:57:53;6.17;;;4.03;;
50880;SDS011;36858;47.832;-3.800;2023-06-01T15:00:21;7.80;;;4.47;;
50880;SDS011;36858;47.832;-3.800;2023-06-01T15:02:48;8.23;;;4.30;;
50880;SDS011;36858;47.832;-3.800;2023-06-01T15:05:15;4.63;;;3.40;;
50880;SDS011;36858;47.832;-3.800;2023-06-01T15:07:42;11.03;;;4.60;;
50880;SDS011;36858;47.832;-3.800;2023-06-01T15:10:09;8.53;;;4.23;;
50880;SDS011;36858;47.832;-3.800;2023-06-01T15:12:36;11.27;;;5.23;;
50880;SDS011;36858;47.832;-3.800;2023-06-01T15:15:03;9.37;;;4.53;;
50880;SDS011;36858;47.832;-3.800;2023-06-01T15:17:31;10.90;;;4.83;;
50880;SDS011;36858;47.832;-3.800;2023-06-01T15:19:58;10.03;;;4.00;;
50880;SDS011;36858;47.832;-3.800;2023-06-01T15:22:25;11.93;;;5.17;;
50880;SDS011;36858;47.832;-3.800;2023-06-01T15:24:52;6.47;;;4.60;;
50880;SDS011;36858;47.832;-3.800;2023-06-01T15:27:19;7.90;;;4.03;;
50880;SDS011;36858;47.832;-3.800;2023-06-01T15:29:46;9.07;;;4.27;;
50880;SDS011;36858;47.832;-3.800;2023-06-01T15:32:13;9.80;;;4.50;;
50880;SDS011;36858;47.832;-3.800;2023-06-01T15:34:40;7.57;;;5.30;;
50880;SDS011;36858;47.832;-3.800;2023-06-01T15:37:09;8.73;;;4.53;;
50880;SDS011;36858;47.832;-3.800;2023-06-01T15:39:36;6.70;;;4.30;;
50880;SDS011;36858;47.832;-3.800;2023-06-01T15:42:07;10.27;;;4.50;;
50880;SDS011;36858;47.832;-3.800;2023-06-01T15:44:42;12.53;;;5.33;;
50880;SDS011;36858;47.832;-3.800;2023-06-01T15:47:09;6.40;;;3.80;;
50880;SDS011;36858;47.832;-3.800;2023-06-01T15:49:40;9.33;;;5.33;;
50880;SDS011;36858;47.832;-3.800;2023-06-01T15:52:07;8.57;;;4.77;;
50880;SDS011;36858;47.832;-3.800;2023-06-01T15:54:34;10.03;;;5.23;;
50880;SDS011;36858;47.832;-3.800;2023-06-01T15:57:01;8.00;;;4.80;;
50880;SDS011;36858;47.832;-3.800;2023-06-01T15:59:30;8.63;;;4.80;;
50880;SDS011;36858;47.832;-3.800;2023-06-01T16:01:57;8.27;;;4.57;;
50880;SDS011;36858;47.832;-3.800;2023-06-01T16:04:24;12.03;;;5.80;;
50880;SDS011;36858;47.832;-3.800;2023-06-01T16:06:51;6.70;;;5.07;;
50880;SDS011;36858;47.832;-3.800;2023-06-01T16:09:18;9.70;;;5.00;;
50880;SDS011;36858;47.832;-3.800;2023-06-01T16:11:45;8.37;;;4.73;;
50880;SDS011;36858;47.832;-3.800;2023-06-01T16:14:12;7.53;;;4.80;;
50880;SDS011;36858;47.832;-3.800;2023-06-01T16:16:39;9.67;;;4.87;;
50880;SDS011;36858;47.832;-3.800;2023-06-01T16:19:06;11.20;;;5.13;;
50880;SDS011;36858;47.832;-3.800;2023-06-01T16:21:33;9.53;;;4.77;;
50880;SDS011;36858;47.832;-3.800;2023-06-01T16:24:01;7.70;;;5.03;;
50880;SDS011;36858;47.832;-3.800;2023-06-01T16:26:28;8.87;;;5.73;;
50880;SDS011;36858;47.832;-3.800;2023-06-01T16:28:55;7.83;;;4.90;;
50880;SDS011;36858;47.832;-3.800;2023-06-01T16:31:22;7.80;;;5.07;;
50880;SDS011;36858;47.832;-3.800;2023-06-01T16:33:49;8.43;;;5.00;;
50880;SDS011;36858;47.832;-3.800;2023-06-01T16:36:16;11.23;;;5.33;;
50880;SDS011;36858;47.832;-3.800;2023-06-01T16:38:43;9.70;;;4.73;;
50880;SDS011;36858;47.832;-3.800;2023-06-01T16:41:14;6.33;;;4.80;;
50880;SDS011;36858;47.832;-3.800;2023-06-01T16:43:42;9.90;;;5.17;;
50880;SDS011;36858;47.832;-3.800;2023-06-01T16:46:11;8.77;;;4.40;;
50880;SDS011;36858;47.832;-3.800;2023-06-01T16:48:38;10.80;;;5.50;;
50880;SDS011;36858;47.832;-3.800;2023-06-01T16:51:04;9.90;;;5.50;;
50880;SDS011;36858;47.832;-3.800;2023-06-01T16:53:31;10.37;;;5.63;;
50880;SDS011;36858;47.832;-3.800;2023-06-01T16:55:58;8.27;;;5.10;;
50880;SDS011;36858;47.832;-3.800;2023-06-01T16:58:26;10.87;;;5.93;;
50880;SDS011;36858;47.832;-3.800;2023-06-01T17:00:53;10.70;;;5.63;;
50880;SDS011;36858;47.832;-3.800;2023-06-01T17:03:20;8.50;;;5.53;;
50880;SDS011;36858;47.832;-3.800;2023-06-01T17:05:47;9.73;;;5.33;;
50880;SDS011;36858;47.832;-3.800;2023-06-01T17:08:14;9.00;;;4.93;;
50880;SDS011;36858;47.832;-3.800;2023-06-01T17:10:42;11.20;;;5.20;;
50880;SDS011;36858;47.832;-3.800;2023-06-01T17:13:10;8.70;;;5.50;;
50880;SDS011;36858;47.832;-3.800;2023-06-01T17:15:37;10.90;;;5.67;;
50880;SDS011;36858;47.832;-3.800;2023-06-01T17:18:04;10.20;;;5.50;;
50880;SDS011;36858;47.832;-3.800;2023-06-01T17:20:31;12.20;;;6.10;;
50880;SDS011;36858;47.832;-3.800;2023-06-01T17:22:58;7.97;;;5.07;;
50880;SDS011;36858;47.832;-3.800;2023-06-01T17:25:25;7.47;;;5.13;;
50880;SDS011;36858;47.832;-3.800;2023-06-01T17:27:52;12.97;;;5.30;;
50880;SDS011;36858;47.832;-3.800;2023-06-01T17:30:19;9.90;;;5.03;;
50880;SDS011;36858;47.832;-3.800;2023-06-01T17:32:46;11.40;;;5.80;;
50880;SDS011;36858;47.832;-3.800;2023-06-01T17:35:12;10.27;;;6.10;;
50880;SDS011;36858;47.832;-3.800;2023-06-01T17:37:39;13.20;;;5.80;;
50880;SDS011;36858;47.832;-3.800;2023-06-01T17:40:06;10.70;;;6.00;;
50880;SDS011;36858;47.832;-3.800;2023-06-01T17:42:34;12.23;;;6.27;;
50880;SDS011;36858;47.832;-3.800;2023-06-01T17:45:01;8.43;;;5.07;;
50880;SDS011;36858;47.832;-3.800;2023-06-01T17:47:27;7.90;;;5.70;;
50880;SDS011;36858;47.832;-3.800;2023-06-01T17:49:54;23.20;;;9.47;;
50880;SDS011;36858;47.832;-3.800;2023-06-01T17:52:21;14.00;;;6.60;;
50880;SDS011;36858;47.832;-3.800;2023-06-01T17:54:48;14.90;;;6.53;;
50880;SDS011;36858;47.832;-3.800;2023-06-01T17:57:15;11.50;;;6.13;;
50880;SDS011;36858;47.832;-3.800;2023-06-01T17:59:42;10.97;;;5.73;;
50880;SDS011;36858;47.832;-3.800;2023-06-01T18:02:10;10.73;;;5.43;;
50880;SDS011;36858;47.832;-3.800;2023-06-01T18:04:37;10.40;;;5.83;;
50880;SDS011;36858;47.832;-3.800;2023-06-01T18:07:04;9.40;;;6.10;;
50880;SDS011;36858;47.832;-3.800;2023-06-01T18:09:31;10.97;;;6.57;;
50880;SDS011;36858;47.832;-3.800;2023-06-01T18:11:58;10.53;;;5.50;;
50880;SDS011;36858;47.832;-3.800;2023-06-01T18:14:25;9.27;;;5.63;;
50880;SDS011;36858;47.832;-3.800;2023-06-01T18:16:52;13.30;;;6.17;;
50880;SDS011;36858;47.832;-3.800;2023-06-01T18:19:19;9.07;;;5.83;;
50880;SDS011;36858;47.832;-3.800;2023-06-01T18:21:47;11.17;;;7.07;;
50880;SDS011;36858;47.832;-3.800;2023-06-01T18:24:14;8.57;;;5.40;;
50880;SDS011;36858;47.832;-3.800;2023-06-01T18:26:41;12.13;;;6.57;;
50880;SDS011;36858;47.832;-3.800;2023-06-01T18:29:07;11.17;;;6.27;;
50880;SDS011;36858;47.832;-3.800;2023-06-01T18:31:34;8.30;;;6.03;;
50880;SDS011;36858;47.832;-3.800;2023-06-01T18:34:01;11.13;;;6.10;;
50880;SDS011;36858;47.832;-3.800;2023-06-01T18:36:28;10.90;;;6.13;;
50880;SDS011;36858;47.832;-3.800;2023-06-01T18:38:55;10.80;;;5.63;;
50880;SDS011;36858;47.832;-3.800;2023-06-01T18:41:22;12.90;;;6.23;;
50880;SDS011;36858;47.832;-3.800;2023-06-01T18:43:49;8.83;;;5.63;;
50880;SDS011;36858;47.832;-3.800;2023-06-01T18:46:16;10.80;;;6.13;;
50880;SDS011;36858;47.832;-3.800;2023-06-01T18:48:45;9.97;;;6.00;;
50880;SDS011;36858;47.832;-3.800;2023-06-01T18:51:12;11.20;;;5.80;;
50880;SDS011;36858;47.832;-3.800;2023-06-01T18:53:40;10.80;;;5.97;;
50880;SDS011;36858;47.832;-3.800;2023-06-01T18:56:12;11.67;;;5.60;;
50880;SDS011;36858;47.832;-3.800;2023-06-01T18:58:43;9.83;;;6.23;;
50880;SDS011;36858;47.832;-3.800;2023-06-01T19:01:10;11.47;;;5.97;;
50880;SDS011;36858;47.832;-3.800;2023-06-01T19:03:41;12.10;;;7.17;;
50880;SDS011;36858;47.832;-3.800;2023-06-01T19:06:09;10.13;;;6.10;;
50880;SDS011;36858;47.832;-3.800;2023-06-01T19:08:36;9.97;;;6.40;;
50880;SDS011;36858;47.832;-3.800;2023-06-01T19:11:05;12.83;;;6.67;;
50880;SDS011;36858;47.832;-3.800;2023-06-01T19:13:43;11.33;;;6.43;;
50880;SDS011;36858;47.832;-3.800;2023-06-01T19:16:12;12.63;;;6.40;;
50880;SDS011;36858;47.832;-3.800;2023-06-01T19:18:45;10.87;;;6.10;;
50880;SDS011;36858;47.832;-3.800;2023-06-01T19:21:15;8.83;;;6.10;;
50880;SDS011;36858;47.832;-3.800;2023-06-01T19:23:51;14.87;;;6.77;;
50880;SDS011;36858;47.832;-3.800;2023-06-01T19:26:23;10.17;;;6.03;;
50880;SDS011;36858;47.832;-3.800;2023-06-01T19:31:34;14.63;;;6.43;;
50880;SDS011;36858;47.832;-3.800;2023-06-01T19:34:03;13.57;;;6.90;;
50880;SDS011;36858;47.832;-3.800;2023-06-01T19:41:54;10.53;;;5.83;;
50880;SDS011;36858;47.832;-3.800;2023-06-01T19:44:26;12.43;;;6.57;;
50880;SDS011;36858;47.832;-3.800;2023-06-01T19:46:53;11.77;;;7.00;;
50880;SDS011;36858;47.832;-3.800;2023-06-01T19:49:20;10.73;;;5.97;;
50880;SDS011;36858;47.832;-3.800;2023-06-01T19:51:50;9.87;;;6.57;;
50880;SDS011;36858;47.832;-3.800;2023-06-01T19:54:20;11.17;;;6.67;;
50880;SDS011;36858;47.832;-3.800;2023-06-01T19:56:48;14.40;;;6.50;;
50880;SDS011;36858;47.832;-3.800;2023-06-01T19:59:20;11.50;;;7.00;;
50880;SDS011;36858;47.832;-3.800;2023-06-01T20:01:48;11.87;;;6.40;;
50880;SDS011;36858;47.832;-3.800;2023-06-01T20:04:16;13.30;;;6.17;;
50880;SDS011;36858;47.832;-3.800;2023-06-01T20:06:44;13.03;;;6.93;;
50880;SDS011;36858;47.832;-3.800;2023-06-01T20:09:13;12.13;;;6.67;;
50880;SDS011;36858;47.832;-3.800;2023-06-01T20:11:42;10.10;;;6.17;;
50880;SDS011;36858;47.832;-3.800;2023-06-01T20:16:45;16.27;;;7.33;;
50880;SDS011;36858;47.832;-3.800;2023-06-01T20:19:12;15.43;;;7.00;;
50880;SDS011;36858;47.832;-3.800;2023-06-01T20:21:47;17.97;;;6.90;;
50880;SDS011;36858;47.832;-3.800;2023-06-01T20:24:15;13.63;;;6.53;;
50880;SDS011;36858;47.832;-3.800;2023-06-01T20:26:45;10.80;;;6.77;;
50880;SDS011;36858;47.832;-3.800;2023-06-01T20:29:14;15.70;;;7.17;;
50880;SDS011;36858;47.832;-3.800;2023-06-01T20:31:41;12.60;;;6.77;;
50880;SDS011;36858;47.832;-3.800;2023-06-01T20:34:08;14.23;;;6.30;;
50880;SDS011;36858;47.832;-3.800;2023-06-01T20:36:37;12.60;;;6.63;;
50880;SDS011;36858;47.832;-3.800;2023-06-01T20:39:05;14.70;;;6.70;;
50880;SDS011;36858;47.832;-3.800;2023-06-01T20:41:33;11.73;;;6.50;;
50880;SDS011;36858;47.832;-3.800;2023-06-01T20:44:01;13.63;;;6.73;;
50880;SDS011;36858;47.832;-3.800;2023-06-01T20:46:29;9.60;;;6.93;;
50880;SDS011;36858;47.832;-3.800;2023-06-01T20:48:59;13.97;;;6.50;;
50880;SDS011;36858;47.832;-3.800;2023-06-01T20:53:56;15.80;;;7.40;;
50880;SDS011;36858;47.832;-3.800;2023-06-01T20:56:37;13.33;;;6.90;;
50880;SDS011;36858;47.832;-3.800;2023-06-01T20:59:10;12.50;;;7.20;;
50880;SDS011;36858;47.832;-3.800;2023-06-01T21:01:44;20.27;;;7.27;;
50880;SDS011;36858;47.832;-3.800;2023-06-01T21:04:13;14.60;;;6.83;;